Saint Petersburg, Russia

2:37 AM MSK on January 20, 2017 (GMT +0300)
Pulkovo | | Change Station

Elev 13 ft 59.97 °N, 30.30 °E | Updated 37 minutes ago

Partly Cloudy
Partly Cloudy
36 °F
Feels Like 25 °F
N
20
Wind Variable Wind from West

Today
High -- | Low -- °F
--% Chance of Precip.
Yesterday
High -- | Low -- °F
Precip. -- in
Pressure 29.83 in
Visibility 6.2 miles
Clouds Few 1600 ft
Windchill 25 °F
Dew Point 28 °F
Humidity 75%
Rainfall 0.00 in
Snow Depth Not available.
9:37 AM 4:43 PM
Waning Gibbous, 50% visible
METAR ULLI 192300Z 28009MPS 9999 FEW016 02/M02 Q1010 R28L/310145 NOSIG
Pressure 29.83 in
Visibility 6.2 miles
Clouds Few 1600 ft
Windchill 25 °F
Dew Point 28 °F
Humidity 75%
Rainfall 0.00 in
Snow Depth Not available.
9:37 AM 4:43 PM
Waning Gibbous, 50% visible
METAR ULLI 192300Z 28009MPS 9999 FEW016 02/M02 Q1010 R28L/310145 NOSIG

Get Your Daily Forecast Email!

Thanks for signing up!

Be on the lookout for a verification email in your inbox.

You'll start receiving the daily forecast at 8 AM.

×

10-Day Weather Forecast

×

Almanac

Astronomy

Jan. 20, 2017 Rise Set
Actual Time
Civil Twilight
Nautical Twilight
Astronomical Twilight
Moon
Length of Visible Light
Length of Day
Tomorrow will be .
, % of the Moon is Illuminated

Today's Extremes

Country Highs Country Lows

Community

WunderPhotos

Upload Photos

1,962,540 photos uploaded!

WunderBlog® & News

Nearby

Air Quality

  Air Quality AQ Index Pollutant
Not available.

Snow Depth

Station Depth Elevation

Earthquake Activity

City Distance Mag. Time & Date
Minimum magnitude displayed is 2.5.

Coastal Water Temperatures

Place Temperature

Stations

Nearby Weather Stations

Station Location Temp. Windchill Dew Point Humidity Wind Precip. Elev Updated Type